Time;durP1;ratioP1;P1;durP2;ratioP2;P2;SDS_P1;SDS_P2;PMS_P1;PMS_P2;Temp;Humidity;BMP_temperature;BMP_pressure;BME280_temperature;BME280_humidity;BME280_pressure;Samples;Min_cycle;Max_cycle;Signal;HPM_P1;HPM_P2
2024/02/16 00:00:59;;;;;;;;;;;;;;;6.49;100.00;100203.88;5094984;28;921;-58
2024/02/16 00:03:26;;;;;;;;;;;;;;;6.48;100.00;100198.72;5094869;28;823;-57
2024/02/16 00:05:53;;;;;;;;;;;;;;;6.54;100.00;100209.03;5094654;28;1913;-58
2024/02/16 00:08:20;;;;;;;;;;;;;;;6.49;100.00;100206.59;5094815;28;887;-58
2024/02/16 00:10:47;;;;;;;;;;;;;;;6.48;100.00;100199.50;5094619;28;870;-58
2024/02/16 00:13:15;;;;;;;;;;;;;;;6.45;100.00;100191.22;5094653;28;871;-58
2024/02/16 00:15:41;;;;;;;;;;;;;;;6.42;100.00;100197.44;5094560;28;836;-58
2024/02/16 00:18:08;;;;;;;;;;;;;;;6.43;100.00;100193.53;5093982;28;867;-58
2024/02/16 00:20:35;;;;;;;;;;;;;;;6.41;100.00;100193.13;5076146;28;1636;-58
2024/02/16 00:23:01;;;;;;;;;;;;;;;6.42;100.00;100195.50;5094440;28;906;-58
2024/02/16 00:25:28;;;;;;;;;;;;;;;6.40;100.00;100180.53;5094446;28;1881;-57
2024/02/16 00:27:54;;;;;;;;;;;;;;;6.36;100.00;100180.50;5094240;28;962;-58
2024/02/16 00:30:22;;;;;;;;;;;;;;;6.31;100.00;100189.78;5094709;28;909;-58
2024/02/16 00:32:48;;;;;;;;;;;;;;;6.25;100.00;100188.53;5094319;28;865;-58
2024/02/16 00:35:19;;;;;;;;;;;;;;;6.25;100.00;100183.03;5094438;28;1224;-57
2024/02/16 00:37:46;;;;;;;;;;;;;;;6.25;100.00;100188.53;5094158;28;819;-58
2024/02/16 00:40:12;;;;;;;;;;;;;;;6.23;100.00;100193.59;5094277;28;835;-58
2024/02/16 00:42:39;;;;;;;;;;;;;;;6.23;100.00;100188.09;5094090;28;807;-58
2024/02/16 00:45:06;;;;;;;;;;;;;;;6.19;100.00;100170.75;5094079;28;1890;-58
2024/02/16 00:47:33;;;;;;;;;;;;;;;6.23;100.00;100188.09;5093669;28;1302;-58
2024/02/16 00:50:00;;;;;;;;;;;;;;;6.25;100.00;100195.94;5094038;28;884;-59
2024/02/16 00:52:26;;;;;;;;;;;;;;;6.20;100.00;100205.28;5093895;28;831;-58
2024/02/16 00:54:53;;;;;;;;;;;;;;;6.21;100.00;100201.38;5093865;28;827;-58
2024/02/16 00:57:20;;;;;;;;;;;;;;;6.27;100.00;100194.44;5093775;28;1009;-57
2024/02/16 00:59:46;;;;;;;;;;;;;;;6.28;100.00;100193.28;5093778;28;824;-58
2024/02/16 01:02:12;;;;;;;;;;;;;;;6.23;100.00;100196.34;5093840;28;898;-58
2024/02/16 01:04:39;;;;;;;;;;;;;;;6.22;100.00;100208.44;5093660;28;1910;-58
2024/02/16 01:07:06;;;;;;;;;;;;;;;6.17;100.00;100205.22;5093806;28;891;-58
2024/02/16 01:09:33;;;;;;;;;;;;;;;6.20;100.00;100218.22;5093723;28;859;-58
2024/02/16 01:11:59;;;;;;;;;;;;;;;6.21;100.00;100215.13;5093671;28;1204;-58
2024/02/16 01:14:26;;;;;;;;;;;;;;;6.20;100.00;100212.72;5093466;28;1245;-58
2024/02/16 01:16:53;;;;;;;;;;;;;;;6.18;100.00;100212.28;5094144;28;760;-58
2024/02/16 01:19:19;;;;;;;;;;;;;;;6.20;100.00;100213.50;5093929;28;834;-58
2024/02/16 01:21:52;;;;;;;;;;;;;;;6.20;100.00;100218.22;5093279;28;859;-58
2024/02/16 01:24:20;;;;;;;;;;;;;;;6.17;100.00;100219.75;5093103;28;1887;-58
2024/02/16 01:26:47;;;;;;;;;;;;;;;6.18;100.00;100221.31;5093204;28;819;-58
2024/02/16 01:29:14;;;;;;;;;;;;;;;6.17;100.00;100221.69;5093156;28;871;-58
2024/02/16 01:31:40;;;;;;;;;;;;;;;6.13;100.00;100216.91;5093048;28;836;-58
2024/02/16 01:34:07;;;;;;;;;;;;;;;6.07;100.00;100212.88;5093095;28;901;-58
2024/02/16 01:36:34;;;;;;;;;;;;;;;6.07;100.00;100212.09;5093160;28;883;-58
2024/02/16 01:39:00;;;;;;;;;;;;;;;6.00;100.00;100215.47;5093000;28;863;-58
2024/02/16 01:41:27;;;;;;;;;;;;;;;6.02;100.00;100215.13;5093269;28;816;-58
2024/02/16 01:43:57;;;;;;;;;;;;;;;5.97;100.00;100209.91;5092879;28;938;-58
2024/02/16 01:46:23;;;;;;;;;;;;;;;5.90;100.00;100219.56;5092819;28;1943;-58
2024/02/16 01:48:54;;;;;;;;;;;;;;;5.89;100.00;100208.97;5092857;28;847;-58
2024/02/16 01:51:23;;;;;;;;;;;;;;;5.90;100.00;100216.81;5093241;28;855;-58
2024/02/16 01:53:50;;;;;;;;;;;;;;;5.81;100.00;100205.25;5092674;28;820;-58
2024/02/16 01:56:18;;;;;;;;;;;;;;;5.83;100.00;100215.88;5092726;28;835;-58
2024/02/16 01:58:44;;;;;;;;;;;;;;;5.84;100.00;100210.00;5074295;28;1321;-58
2024/02/16 02:01:11;;;;;;;;;;;;;;;5.81;100.00;100213.50;5092662;28;804;-58
2024/02/16 02:03:38;;;;;;;;;;;;;;;5.73;100.00;100193.34;5092406;28;840;-58
2024/02/16 02:06:05;;;;;;;;;;;;;;;5.79;100.00;100207.56;5092445;28;1910;-58
2024/02/16 02:08:32;;;;;;;;;;;;;;;5.71;100.00;100206.63;5092437;28;820;-58
2024/02/16 02:10:59;;;;;;;;;;;;;;;5.66;100.00;100206.91;5092402;28;926;-58
2024/02/16 02:13:25;;;;;;;;;;;;;;;5.66;100.00;100190.47;5092500;28;855;-57
2024/02/16 02:15:53;;;;;;;;;;;;;;;5.62;100.00;100186.84;5092330;28;856;-57
2024/02/16 02:18:20;;;;;;;;;;;;;;;5.58;100.00;100196.16;5092213;28;995;-58
2024/02/16 02:20:46;;;;;;;;;;;;;;;5.56;100.00;100201.19;5092196;28;898;-58
2024/02/16 02:23:13;;;;;;;;;;;;;;;5.54;100.00;100201.53;5092183;28;885;-58
2024/02/16 02:25:40;;;;;;;;;;;;;;;5.55;100.00;100205.06;5073886;28;1906;-57
2024/02/16 02:28:08;;;;;;;;;;;;;;;5.55;100.00;100213.31;5074095;28;876;-58
2024/02/16 02:30:34;;;;;;;;;;;;;;;5.56;100.00;100206.69;5092103;28;891;-58
2024/02/16 02:33:00;;;;;;;;;;;;;;;5.57;100.00;100214.56;5092123;28;816;-57
2024/02/16 02:35:27;;;;;;;;;;;;;;;5.51;100.00;100222.25;5092093;28;850;-58
2024/02/16 02:37:54;;;;;;;;;;;;;;;5.53;100.00;100216.44;5092050;28;875;-58
2024/02/16 02:40:20;;;;;;;;;;;;;;;5.52;100.00;100212.88;5091981;28;807;-57
2024/02/16 02:42:47;;;;;;;;;;;;;;;5.51;100.00;100213.25;5091472;28;895;-58
2024/02/16 02:45:14;;;;;;;;;;;;;;;5.51;100.00;100213.25;5092119;28;1967;-58
2024/02/16 02:47:40;;;;;;;;;;;;;;;5.46;100.00;100222.56;5091876;28;1472;-58
2024/02/16 02:50:08;;;;;;;;;;;;;;;5.47;100.00;100213.16;5091788;28;942;-58
2024/02/16 02:52:34;;;;;;;;;;;;;;;5.44;100.00;100244.03;5091893;28;895;-58
2024/02/16 02:55:01;;;;;;;;;;;;;;;5.43;100.00;100238.91;5091699;28;917;-58
2024/02/16 02:57:28;;;;;;;;;;;;;;;5.41;100.00;100233.00;5092034;28;820;-58
2024/02/16 03:00:02;;;;;;;;;;;;;;;5.37;100.00;100241.13;5091796;28;828;-58
2024/02/16 03:02:29;;;;;;;;;;;;;;;5.38;100.00;100241.94;5091830;28;809;-58
2024/02/16 03:04:55;;;;;;;;;;;;;;;5.34;100.00;100243.81;5091663;28;1909;-58
2024/02/16 03:07:21;;;;;;;;;;;;;;;5.28;100.00;100233.09;5091700;28;886;-58
2024/02/16 03:09:48;;;;;;;;;;;;;;;5.29;100.00;100236.63;5091768;28;981;-58
2024/02/16 03:12:15;;;;;;;;;;;;;;;5.25;100.00;100242.03;5091547;28;871;-58
2024/02/16 03:14:42;;;;;;;;;;;;;;;5.22;100.00;100223.53;5091687;28;842;-58
2024/02/16 03:17:09;;;;;;;;;;;;;;;5.18;100.00;100228.16;5091595;28;970;-58
2024/02/16 03:19:36;;;;;;;;;;;;;;;5.15;100.00;100239.03;5091521;28;954;-58
2024/02/16 03:22:02;;;;;;;;;;;;;;;5.13;100.00;100225.69;5091575;28;836;-58
2024/02/16 03:24:30;;;;;;;;;;;;;;;5.16;100.00;100197.56;5091409;28;1882;-58
2024/02/16 03:26:57;;;;;;;;;;;;;;;5.14;100.00;100234.69;5091498;28;865;-58
2024/02/16 03:29:24;;;;;;;;;;;;;;;5.17;100.00;100243.00;5091597;28;823;-58
2024/02/16 03:31:51;;;;;;;;;;;;;;;5.15;100.00;100223.38;5091418;28;848;-58
2024/02/16 03:34:18;;;;;;;;;;;;;;;5.14;100.00;100226.47;5091429;28;848;-58
2024/02/16 03:36:44;;;;;;;;;;;;;;;5.14;100.00;100234.69;5091438;28;930;-58
2024/02/16 03:39:11;;;;;;;;;;;;;;;5.14;100.00;100207.28;5091319;28;859;-58
2024/02/16 03:41:38;;;;;;;;;;;;;;;5.07;100.00;100205.97;5091804;28;815;-58
2024/02/16 03:44:05;;;;;;;;;;;;;;;5.06;100.00;100226.31;5091343;28;902;-58
2024/02/16 03:46:31;;;;;;;;;;;;;;;5.08;100.00;100213.06;5091438;28;1387;-58
2024/02/16 03:48:58;;;;;;;;;;;;;;;5.13;100.00;100230.38;5091342;28;883;-58
2024/02/16 03:51:25;;;;;;;;;;;;;;;5.13;100.00;100216.69;5091247;28;911;-58
2024/02/16 03:53:52;;;;;;;;;;;;;;;5.09;100.00;100224.81;5092213;28;811;-58
2024/02/16 03:56:19;;;;;;;;;;;;;;;5.06;100.00;100250.19;5094912;28;851;-58
2024/02/16 03:58:46;;;;;;;;;;;;;;;5.07;100.00;100233.38;5094923;28;902;-58
2024/02/16 04:01:13;;;;;;;;;;;;;;;5.06;100.00;100233.75;5094859;28;827;-59
2024/02/16 04:03:40;;;;;;;;;;;;;;;5.07;100.00;100254.50;5094699;28;880;-58
2024/02/16 04:06:05;;;;;;;;;;;;;;;5.06;100.00;100259.19;5094763;28;1975;-58
2024/02/16 04:08:32;;;;;;;;;;;;;;;5.07;100.00;100249.81;5094684;28;843;-58
2024/02/16 04:10:59;;;;;;;;;;;;;;;5.09;100.00;100253.00;5094721;28;854;-58
2024/02/16 04:13:26;;;;;;;;;;;;;;;5.03;100.00;100259.09;5094611;28;831;-58
2024/02/16 04:15:52;;;;;;;;;;;;;;;5.01;100.00;100272.34;5094600;28;887;-58
2024/02/16 04:18:19;;;;;;;;;;;;;;;5.01;100.00;100262.19;5094829;28;876;-58
2024/02/16 04:20:46;;;;;;;;;;;;;;;4.99;100.00;100258.22;5094507;28;879;-58
2024/02/16 04:23:12;;;;;;;;;;;;;;;4.99;100.00;100269.16;5094470;28;886;-58
2024/02/16 04:25:40;;;;;;;;;;;;;;;4.97;100.00;100266.81;5094492;28;1890;-58
2024/02/16 04:28:07;;;;;;;;;;;;;;;4.91;100.00;100263.53;5094342;28;855;-58
2024/02/16 04:30:34;;;;;;;;;;;;;;;4.92;100.00;100247.88;5094291;28;969;-57
2024/02/16 04:33:02;;;;;;;;;;;;;;;4.88;100.00;100268.91;5094245;28;882;-58
2024/02/16 04:35:28;;;;;;;;;;;;;;;4.83;100.00;100274.66;5094125;28;917;-58
2024/02/16 04:37:54;;;;;;;;;;;;;;;4.85;100.00;100273.16;5094268;28;831;-58
2024/02/16 04:40:21;;;;;;;;;;;;;;;4.81;100.00;100282.44;5094319;28;847;-58
2024/02/16 04:42:48;;;;;;;;;;;;;;;4.81;100.00;100279.69;5094144;28;882;-58
2024/02/16 04:45:15;;;;;;;;;;;;;;;4.81;100.00;100268.72;5094270;28;1889;-58
2024/02/16 04:47:42;;;;;;;;;;;;;;;4.87;100.00;100279.06;5093918;28;1290;-58
2024/02/16 04:50:11;;;;;;;;;;;;;;;4.94;100.00;100277.66;5093954;28;882;-58
2024/02/16 04:52:41;;;;;;;;;;;;;;;4.91;100.00;100270.94;5094033;28;828;-58
2024/02/16 04:55:07;;;;;;;;;;;;;;;4.91;100.00;100279.16;5094119;28;914;-58
2024/02/16 04:57:34;;;;;;;;;;;;;;;4.89;100.00;100279.50;5093704;28;887;-58
2024/02/16 05:00:01;;;;;;;;;;;;;;;4.89;100.00;100274.03;5094098;28;808;-58
2024/02/16 05:02:28;;;;;;;;;;;;;;;4.92;100.00;100280.75;5093685;28;955;-58
2024/02/16 05:04:55;;;;;;;;;;;;;;;4.96;100.00;100281.63;5093230;28;1917;-58
2024/02/16 05:07:21;;;;;;;;;;;;;;;4.94;100.00;100283.94;5093572;28;856;-58
2024/02/16 05:09:49;;;;;;;;;;;;;;;4.92;100.00;100288.97;5093529;28;970;-58
2024/02/16 05:12:18;;;;;;;;;;;;;;;4.91;100.00;100292.88;5093394;28;891;-58
2024/02/16 05:14:47;;;;;;;;;;;;;;;4.92;100.00;100297.19;5093470;28;820;-58
2024/02/16 05:17:13;;;;;;;;;;;;;;;4.91;100.00;100306.56;5093392;28;835;-58
2024/02/16 05:19:40;;;;;;;;;;;;;;;4.89;100.00;100285.00;5093324;28;869;-58
2024/02/16 05:22:07;;;;;;;;;;;;;;;4.88;100.00;100304.50;5093332;28;820;-58
2024/02/16 05:24:34;;;;;;;;;;;;;;;4.87;100.00;100292.75;5093132;28;1886;-58
2024/02/16 05:27:01;;;;;;;;;;;;;;;4.88;100.00;100283.38;5093229;28;844;-58
2024/02/16 05:29:28;;;;;;;;;;;;;;;4.88;100.00;100315.47;5093144;28;808;-58
2024/02/16 05:31:54;;;;;;;;;;;;;;;4.87;100.00;100297.47;5093194;28;848;-58
2024/02/16 05:34:21;;;;;;;;;;;;;;;4.86;100.00;100295.84;5093077;28;823;-59
2024/02/16 05:36:48;;;;;;;;;;;;;;;4.87;100.00;100300.19;5093090;28;831;-58
2024/02/16 05:39:26;;;;;;;;;;;;;;;4.85;100.00;100306.00;5092869;28;1690;-58
2024/02/16 05:41:53;;;;;;;;;;;;;;;4.85;100.00;100308.75;5093016;28;871;-58
2024/02/16 05:44:20;;;;;;;;;;;;;;;4.89;100.00;100308.84;5074737;28;1961;-59
2024/02/16 05:46:46;;;;;;;;;;;;;;;4.85;100.00;100297.78;5092850;28;1301;-58
2024/02/16 05:49:14;;;;;;;;;;;;;;;4.84;100.00;100296.22;5092947;28;872;-58
2024/02/16 05:51:42;;;;;;;;;;;;;;;4.84;100.00;100314.56;5092747;28;852;-58
2024/02/16 05:54:12;;;;;;;;;;;;;;;4.87;100.00;100328.38;5092969;28;899;-59
2024/02/16 05:56:39;;;;;;;;;;;;;;;4.88;100.00;100312.72;5092615;28;959;-58
2024/02/16 05:59:06;;;;;;;;;;;;;;;4.91;100.00;100328.47;5092636;28;844;-58
2024/02/16 06:01:32;;;;;;;;;;;;;;;4.93;100.00;100330.84;5092610;28;828;-58
2024/02/16 06:03:59;;;;;;;;;;;;;;;4.93;100.00;100319.88;5092459;28;975;-58
2024/02/16 06:06:25;;;;;;;;;;;;;;;4.95;100.00;100323.88;5092695;28;1902;-58
2024/02/16 06:08:52;;;;;;;;;;;;;;;4.97;100.00;100332.56;5092429;28;847;-58
2024/02/16 06:11:18;;;;;;;;;;;;;;;5.06;100.00;100324.94;5092403;28;898;-58
2024/02/16 06:13:45;;;;;;;;;;;;;;;5.05;100.00;100339.78;5092349;28;822;-58
2024/02/16 06:16:12;;;;;;;;;;;;;;;5.00;100.00;100322.81;5091940;28;816;-59
2024/02/16 06:18:38;;;;;;;;;;;;;;;4.97;100.00;100326.25;5092245;28;877;-58
2024/02/16 06:21:05;;;;;;;;;;;;;;;5.08;100.00;100341.06;5074060;28;807;-58
2024/02/16 06:23:32;;;;;;;;;;;;;;;5.12;100.00;100333.69;5092620;28;835;-58
2024/02/16 06:25:59;;;;;;;;;;;;;;;5.04;100.00;100342.91;5092079;28;1946;-58
2024/02/16 06:28:25;;;;;;;;;;;;;;;5.13;100.00;100345.47;5092285;28;1028;-58
2024/02/16 06:30:52;;;;;;;;;;;;;;;5.26;100.00;100347.75;5092173;28;910;-58
2024/02/16 06:33:19;;;;;;;;;;;;;;;5.20;100.00;100356.59;5092338;28;1029;-58
2024/02/16 06:35:48;;;;;;;;;;;;;;;5.17;100.00;100371.81;5092149;28;851;-58
2024/02/16 06:38:13;;;;;;;;;;;;;;;5.15;100.00;100348.66;5073875;28;1632;-58
2024/02/16 06:40:40;;;;;;;;;;;;;;;5.23;100.00;100355.91;5092093;28;964;-58
2024/02/16 06:43:06;;;;;;;;;;;;;;;5.00;100.00;100320.88;5092138;28;816;-58
2024/02/16 06:45:32;;;;;;;;;;;;;;;5.20;100.00;100362.09;5092177;28;1916;-59
2024/02/16 06:48:00;;;;;;;;;;;;;;;5.29;100.00;100349.81;5092020;28;1070;-58
2024/02/16 06:50:27;;;;;;;;;;;;;;;5.39;100.00;100361.38;5092276;28;941;-58
2024/02/16 06:52:55;;;;;;;;;;;;;;;5.44;100.00;100361.94;5092292;28;824;-58
2024/02/16 06:55:21;;;;;;;;;;;;;;;5.42;100.00;100366.16;5092011;28;823;-58
2024/02/16 06:57:48;;;;;;;;;;;;;;;5.41;100.00;100370.06;5091965;28;879;-58
2024/02/16 07:00:15;;;;;;;;;;;;;;;5.40;100.00;100369.28;5091910;28;942;-58
2024/02/16 07:02:42;;;;;;;;;;;;;;;5.50;100.00;100381.63;5091976;28;890;-58
2024/02/16 07:05:11;;;;;;;;;;;;;;;5.66;100.00;100374.22;5091819;28;1976;-58
2024/02/16 07:07:38;;;;;;;;;;;;;;;5.71;100.00;100370.41;5091773;28;828;-58
2024/02/16 07:10:05;;;;;;;;;;;;;;;5.50;100.00;100368.75;5091983;28;898;-58
2024/02/16 07:12:33;;;;;;;;;;;;;;;5.44;100.00;100372.06;5091613;28;1218;-58
2024/02/16 07:15:00;;;;;;;;;;;;;;;5.45;100.00;100381.91;5091544;28;930;-58
2024/02/16 07:17:27;;;;;;;;;;;;;;;5.54;100.00;100371.56;5091609;28;832;-58
2024/02/16 07:19:53;;;;;;;;;;;;;;;5.51;100.00;100375.81;5091657;28;872;-58
2024/02/16 07:22:20;;;;;;;;;;;;;;;5.53;100.00;100380.94;5091555;28;897;-57
2024/02/16 07:24:48;;;;;;;;;;;;;;;5.41;100.00;100395.53;5091350;28;1959;-59
2024/02/16 07:27:14;;;;;;;;;;;;;;;5.51;100.00;100397.75;5091545;28;902;-58
2024/02/16 07:29:41;;;;;;;;;;;;;;;5.62;100.00;100389.00;5095393;28;835;-60
2024/02/16 07:32:08;;;;;;;;;;;;;;;5.61;100.00;100382.72;5095598;28;863;-59
2024/02/16 07:34:35;;;;;;;;;;;;;;;5.63;100.00;100396.88;5095616;28;828;-59
2024/02/16 07:37:01;;;;;;;;;;;;;;;5.70;100.00;100390.75;5095401;28;839;-59
2024/02/16 07:39:28;;;;;;;;;;;;;;;5.54;100.00;100368.81;5077273;28;1183;-59
2024/02/16 07:41:55;;;;;;;;;;;;;;;5.75;100.00;100395.19;5095216;28;934;-59
2024/02/16 07:44:21;;;;;;;;;;;;;;;5.65;100.00;100405.50;5077195;28;1894;-60
2024/02/16 07:46:50;;;;;;;;;;;;;;;5.62;100.00;100408.19;5095104;28;1158;-59
2024/02/16 07:49:17;;;;;;;;;;;;;;;5.58;100.00;100404.56;5095067;28;1010;-59
2024/02/16 07:51:44;;;;;;;;;;;;;;;5.68;100.00;100402.06;5095399;28;863;-59
2024/02/16 07:54:10;;;;;;;;;;;;;;;5.85;100.00;100408.34;5095129;28;839;-59
2024/02/16 07:56:37;;;;;;;;;;;;;;;5.88;100.00;100413.91;5095048;28;829;-59
2024/02/16 07:59:04;;;;;;;;;;;;;;;5.90;100.00;100403.38;5095164;28;871;-59
2024/02/16 08:01:31;;;;;;;;;;;;;;;5.71;100.00;100406.84;5094942;28;877;-59
2024/02/16 08:03:58;;;;;;;;;;;;;;;5.61;100.00;100414.81;5094923;28;973;-59
2024/02/16 08:06:26;;;;;;;;;;;;;;;5.57;100.00;100425.72;5094862;28;1973;-59
2024/02/16 08:08:53;;;;;;;;;;;;;;;5.50;100.00;100414.53;5094664;28;895;-59
2024/02/16 08:11:20;;;;;;;;;;;;;;;5.49;100.00;100424.72;5094724;28;858;-58
2024/02/16 08:13:47;;;;;;;;;;;;;;;5.64;100.00;100423.13;5076649;28;1436;-59
2024/02/16 08:16:14;;;;;;;;;;;;;;;5.71;100.00;100422.50;5094625;28;799;-59
2024/02/16 08:18:43;;;;;;;;;;;;;;;5.79;100.00;100427.03;5094630;28;843;-59
2024/02/16 08:21:10;;;;;;;;;;;;;;;5.75;100.00;100419.84;5094533;28;851;-59
2024/02/16 08:23:38;;;;;;;;;;;;;;;5.90;100.00;100432.75;5094472;28;816;-59
2024/02/16 08:26:05;;;;;;;;;;;;;;;5.99;100.00;100438.09;5094461;28;2026;-59
2024/02/16 08:28:31;;;;;;;;;;;;;;;5.91;100.00;100437.91;5094406;28;851;-59
2024/02/16 08:30:58;;;;;;;;;;;;;;;5.81;100.00;100440.41;5076139;28;1191;-59
2024/02/16 08:33:25;;;;;;;;;;;;;;;5.87;100.00;100438.97;5094319;28;855;-59
2024/02/16 08:35:52;;;;;;;;;;;;;;;5.93;100.00;100446.59;5094252;28;871;-59
2024/02/16 08:38:19;;;;;;;;;;;;;;;6.00;100.00;100436.97;5094239;28;888;-58
2024/02/16 08:40:47;;;;;;;;;;;;;;;5.78;100.00;100435.59;5093470;28;898;-59
2024/02/16 08:43:14;;;;;;;;;;;;;;;5.76;100.00;100451.63;5094208;28;835;-59
2024/02/16 08:45:41;;;;;;;;;;;;;;;5.79;100.00;100445.44;5094053;28;1881;-59
2024/02/16 08:48:07;;;;;;;;;;;;;;;5.70;100.00;100442.88;5094054;28;902;-59
2024/02/16 08:50:34;;;;;;;;;;;;;;;5.57;100.00;100450.38;5093931;28;831;-58
2024/02/16 08:53:01;;;;;;;;;;;;;;;5.39;100.00;100449.13;5093934;28;922;-59
2024/02/16 08:55:28;;;;;;;;;;;;;;;5.36;100.00;100450.63;5093877;28;855;-58
2024/02/16 08:57:55;;;;;;;;;;;;;;;5.26;100.00;100448.38;5094142;28;883;-59
2024/02/16 09:00:23;;;;;;;;;;;;;;;5.17;100.00;100451.28;5093828;28;903;-59
2024/02/16 09:02:50;;;;;;;;;;;;;;;5.13;100.00;100452.34;5093697;28;980;-59
2024/02/16 09:05:16;;;;;;;;;;;;;;;5.17;100.00;100459.50;5093675;28;1909;-59
2024/02/16 09:07:43;;;;;;;;;;;;;;;5.10;100.00;100462.84;5093560;28;868;-59
2024/02/16 09:10:09;;;;;;;;;;;;;;;5.19;100.00;100459.94;5093617;28;831;-59
2024/02/16 09:12:36;;;;;;;;;;;;;;;5.19;100.00;100457.22;5093506;28;923;-58
2024/02/16 09:46:04;;;;;;;;;;;;;;;5.51;100.00;100482.75;5498115;22;1596;-59
2024/02/16 09:48:31;;;;;;;;;;;;;;;5.54;100.00;100483.97;5133748;27;881;-59
2024/02/16 09:51:01;;;;;;;;;;;;;;;5.50;100.00;100489.38;5133048;27;890;-59
2024/02/16 09:53:28;;;;;;;;;;;;;;;5.55;100.00;100491.06;5133326;27;922;-59
2024/02/16 09:55:54;;;;;;;;;;;;;;;5.61;100.00;100483.38;5133700;27;850;-59
2024/02/16 09:58:21;;;;;;;;;;;;;;;5.62;100.00;100484.97;5133552;27;823;-59
2024/02/16 10:00:49;;;;;;;;;;;;;;;5.75;100.00;100477.47;5133559;27;860;-59
2024/02/16 10:03:29;;;;;;;;;;;;;;;5.81;100.00;100482.34;5133463;27;818;-59
2024/02/16 10:06:06;;;;;;;;;;;;;;;5.80;100.00;100483.47;5133353;27;1972;-59
2024/02/16 10:08:34;;;;;;;;;;;;;;;5.95;100.00;100475.63;5133356;27;898;-59
2024/02/16 10:11:04;;;;;;;;;;;;;;;6.00;100.00;100475.38;5133396;27;1410;-59
2024/02/16 10:13:33;;;;;;;;;;;;;;;6.02;100.00;100475.81;5133323;27;850;-59
2024/02/16 10:16:12;;;;;;;;;;;;;;;6.06;100.00;100466.53;5133214;27;882;-59
2024/02/16 10:18:39;;;;;;;;;;;;;;;6.09;100.00;100459.50;5133441;27;989;-59
2024/02/16 10:21:06;;;;;;;;;;;;;;;6.07;100.00;100459.06;5133093;27;831;-59
2024/02/16 10:23:32;;;;;;;;;;;;;;;6.10;100.00;100461.91;5133190;27;850;-59
2024/02/16 10:25:59;;;;;;;;;;;;;;;6.11;100.00;100459.97;5133025;27;1978;-59
2024/02/16 10:28:28;;;;;;;;;;;;;;;6.22;100.00;100466.47;5133166;27;846;-59
2024/02/16 10:31:02;;;;;;;;;;;;;;;6.45;100.00;100460.34;5132858;27;1003;-59
2024/02/16 10:33:31;;;;;;;;;;;;;;;6.52;100.00;100460.50;5133094;27;1059;-59
2024/02/16 10:35:59;;;;;;;;;;;;;;;6.71;100.00;100444.03;5132850;27;929;-59
2024/02/16 10:38:27;;;;;;;;;;;;;;;6.59;100.00;100460.63;5132871;27;822;-59
2024/02/16 10:40:56;;;;;;;;;;;;;;;6.52;100.00;100446.75;5132954;27;811;-59
2024/02/16 10:43:24;;;;;;;;;;;;;;;6.62;100.00;100451.69;5132936;27;898;-59
2024/02/16 10:45:52;;;;;;;;;;;;;;;6.73;100.00;100451.91;5132713;27;1877;-59
2024/02/16 10:48:19;;;;;;;;;;;;;;;6.93;100.00;100453.53;5132682;27;862;-59
2024/02/16 10:50:46;;;;;;;;;;;;;;;6.73;100.00;100454.66;5132921;27;878;-59
2024/02/16 10:53:15;;;;;;;;;;;;;;;6.82;100.00;100449.75;5132596;28;980;-59
2024/02/16 10:55:43;;;;;;;;;;;;;;;6.70;100.00;100458.94;5132665;28;921;-59
2024/02/16 10:58:12;;;;;;;;;;;;;;;6.66;100.00;100452.56;5132591;28;1791;-59
2024/02/16 11:00:49;;;;;;;;;;;;;;;6.62;100.00;100456.41;5114480;28;964;-59
2024/02/16 11:03:17;;;;;;;;;;;;;;;6.70;100.00;100458.13;5134294;27;926;-59
2024/02/16 11:05:46;;;;;;;;;;;;;;;6.69;100.00;100438.09;5137027;27;1975;-59
2024/02/16 11:08:14;;;;;;;;;;;;;;;6.54;100.00;100453.47;5136823;27;908;-58
2024/02/16 11:10:41;;;;;;;;;;;;;;;6.91;100.00;100444.84;5136730;27;863;-59
2024/02/16 11:13:08;;;;;;;;;;;;;;;7.33;100.00;100449.56;5118411;27;950;-59
2024/02/16 11:15:36;;;;;;;;;;;;;;;7.07;100.00;100455.75;5118527;27;844;-59
2024/02/16 11:18:03;;;;;;;;;;;;;;;6.66;100.00;100458.06;5136660;27;968;-59
2024/02/16 11:20:39;;;;;;;;;;;;;;;6.45;100.00;100452.88;5136660;27;858;-59
2024/02/16 11:23:14;;;;;;;;;;;;;;;6.31;100.00;100447.06;5136533;27;933;-59
2024/02/16 11:25:50;;;;;;;;;;;;;;;6.16;100.00;100454.19;5136549;27;1881;-59
2024/02/16 11:28:18;;;;;;;;;;;;;;;5.98;100.00;100450.25;5136435;27;1648;-59
2024/02/16 11:30:45;;;;;;;;;;;;;;;5.91;100.00;100439.84;5136484;27;982;-59
2024/02/16 11:33:11;;;;;;;;;;;;;;;5.96;100.00;100441.56;5136428;27;831;-59
2024/02/16 11:35:40;;;;;;;;;;;;;;;6.00;100.00;100440.50;5136480;27;839;-59
2024/02/16 11:38:07;;;;;;;;;;;;;;;6.03;100.00;100441.72;5136261;27;890;-59
2024/02/16 11:40:34;;;;;;;;;;;;;;;6.00;100.00;100436.97;5136477;27;838;-59
2024/02/16 11:43:02;;;;;;;;;;;;;;;5.94;100.00;100450.13;5136131;27;893;-58
2024/02/16 11:45:28;;;;;;;;;;;;;;;6.01;100.00;100442.06;5135900;27;1873;-60
2024/02/16 11:48:05;;;;;;;;;;;;;;;6.11;100.00;100425.06;5136067;27;941;-59
2024/02/16 11:50:31;;;;;;;;;;;;;;;6.32;100.00;100438.50;5136127;27;1091;-59
2024/02/16 11:52:58;;;;;;;;;;;;;;;6.45;100.00;100439.16;5135974;27;958;-59
2024/02/16 11:55:25;;;;;;;;;;;;;;;6.42;100.00;100439.88;5136016;27;846;-59
2024/02/16 11:57:51;;;;;;;;;;;;;;;6.32;100.00;100424.75;5135899;27;899;-59
2024/02/16 12:00:18;;;;;;;;;;;;;;;6.32;100.00;100426.72;5135894;27;879;-59
2024/02/16 12:02:45;;;;;;;;;;;;;;;6.34;100.00;100432.66;5135915;27;894;-59
2024/02/16 12:05:15;;;;;;;;;;;;;;;6.51;100.00;100429.50;5135732;27;1972;-59
2024/02/16 12:07:42;;;;;;;;;;;;;;;6.43;100.00;100454.41;5136017;27;932;-59
2024/02/16 12:10:11;;;;;;;;;;;;;;;6.23;100.00;100440.63;5135885;27;956;-59
2024/02/16 12:12:38;;;;;;;;;;;;;;;6.33;100.00;100442.81;5135660;27;890;-59
2024/02/16 12:15:05;;;;;;;;;;;;;;;6.41;100.00;100434.75;5134379;27;891;-59
2024/02/16 12:17:32;;;;;;;;;;;;;;;6.45;100.00;100441.13;5135798;27;879;-59
2024/02/16 12:19:58;;;;;;;;;;;;;;;6.45;100.00;100438.38;5135617;27;867;-59
2024/02/16 12:22:24;;;;;;;;;;;;;;;6.38;100.00;100428.03;5135316;27;934;-59
2024/02/16 12:24:51;;;;;;;;;;;;;;;6.39;100.00;100437.84;5135327;27;1881;-59
2024/02/16 12:27:17;;;;;;;;;;;;;;;6.45;100.00;100424.63;5135398;27;840;-59
2024/02/16 12:29:44;;;;;;;;;;;;;;;6.45;100.00;100424.63;5135695;27;885;-59
2024/02/16 12:32:10;;;;;;;;;;;;;;;6.36;100.00;100437.75;5135194;27;1021;-59
2024/02/16 12:34:37;;;;;;;;;;;;;;;6.15;100.00;100425.16;5135327;27;827;-59
2024/02/16 12:37:07;;;;;;;;;;;;;;;6.02;100.00;100418.97;5135031;27;859;-59
2024/02/16 12:39:34;;;;;;;;;;;;;;;6.03;100.00;100420.56;5135175;27;839;-59
2024/02/16 12:42:01;;;;;;;;;;;;;;;6.07;100.00;100415.94;5135116;27;866;-59
2024/02/16 12:44:28;;;;;;;;;;;;;;;5.99;100.00;100427.13;5134913;27;1958;-60
2024/02/16 12:46:54;;;;;;;;;;;;;;;6.05;100.00;100423.75;5134973;27;1263;-59
2024/02/16 12:49:22;;;;;;;;;;;;;;;6.24;100.00;100439.47;5134942;27;842;-59
2024/02/16 12:51:51;;;;;;;;;;;;;;;6.21;100.00;100431.97;5135134;27;948;-59
2024/02/16 12:54:22;;;;;;;;;;;;;;;6.19;100.00;100428.78;5134742;27;978;-59
2024/02/16 12:56:49;;;;;;;;;;;;;;;6.37;100.00;100422.88;5135163;27;927;-59
2024/02/16 12:59:16;;;;;;;;;;;;;;;6.36;100.00;100424.84;5134702;27;859;-59
2024/02/16 13:01:43;;;;;;;;;;;;;;;6.48;100.00;100418.41;5134777;27;893;-59
2024/02/16 13:04:10;;;;;;;;;;;;;;;6.56;100.00;100414.66;5134489;27;906;-59
2024/02/16 13:06:37;;;;;;;;;;;;;;;6.48;100.00;100434.91;5134518;27;1910;-59
2024/02/16 13:09:04;;;;;;;;;;;;;;;6.41;100.00;100432.00;5134495;27;950;-59
2024/02/16 13:11:33;;;;;;;;;;;;;;;6.43;100.00;100433.22;5134388;27;870;-59
2024/02/16 13:14:00;;;;;;;;;;;;;;;6.16;100.00;100434.19;5134434;27;924;-59
2024/02/16 13:16:27;;;;;;;;;;;;;;;6.04;100.00;100429.59;5134543;27;909;-59
2024/02/16 13:18:54;;;;;;;;;;;;;;;6.02;100.00;100440.16;5134449;27;940;-59
2024/02/16 13:21:20;;;;;;;;;;;;;;;6.07;100.00;100439.88;5134311;27;986;-59
2024/02/16 13:23:47;;;;;;;;;;;;;;;6.01;100.00;100433.84;5134317;27;847;-59
2024/02/16 13:26:14;;;;;;;;;;;;;;;5.95;100.00;100439.97;5134159;27;1893;-59